sensor_id;sensor_type;location;lat;lon;timestamp;temperature;humidity
24560;DHT22;12727;49.934;8.656;2023-05-14T00:01:01;10.60;99.90
24560;DHT22;12727;49.934;8.656;2023-05-14T00:03:27;10.60;99.90
24560;DHT22;12727;49.934;8.656;2023-05-14T00:05:52;10.50;99.90
24560;DHT22;12727;49.934;8.656;2023-05-14T00:08:18;10.40;99.90
24560;DHT22;12727;49.934;8.656;2023-05-14T00:10:43;10.30;99.90
24560;DHT22;12727;49.934;8.656;2023-05-14T00:13:09;10.20;99.90
24560;DHT22;12727;49.934;8.656;2023-05-14T00:15:35;10.10;99.90
24560;DHT22;12727;49.934;8.656;2023-05-14T00:18:00;9.90;99.90
24560;DHT22;12727;49.934;8.656;2023-05-14T00:20:26;9.90;99.90
24560;DHT22;12727;49.934;8.656;2023-05-14T00:22:51;9.80;99.90
24560;DHT22;12727;49.934;8.656;2023-05-14T00:25:17;9.80;99.90
24560;DHT22;12727;49.934;8.656;2023-05-14T00:27:42;9.70;99.90
24560;DHT22;12727;49.934;8.656;2023-05-14T00:30:08;9.60;99.90
24560;DHT22;12727;49.934;8.656;2023-05-14T00:32:34;9.60;99.90
24560;DHT22;12727;49.934;8.656;2023-05-14T00:34:59;9.70;99.90
24560;DHT22;12727;49.934;8.656;2023-05-14T00:37:27;9.70;99.90
24560;DHT22;12727;49.934;8.656;2023-05-14T00:39:52;9.70;99.90
24560;DHT22;12727;49.934;8.656;2023-05-14T00:42:18;9.60;99.90
24560;DHT22;12727;49.934;8.656;2023-05-14T00:44:43;9.60;99.90
24560;DHT22;12727;49.934;8.656;2023-05-14T00:47:09;9.70;99.90
24560;DHT22;12727;49.934;8.656;2023-05-14T00:49:35;9.70;99.90
24560;DHT22;12727;49.934;8.656;2023-05-14T00:52:00;9.70;99.90
24560;DHT22;12727;49.934;8.656;2023-05-14T00:54:27;9.70;99.90
24560;DHT22;12727;49.934;8.656;2023-05-14T00:56:54;9.70;99.90
24560;DHT22;12727;49.934;8.656;2023-05-14T00:59:19;9.80;99.90
24560;DHT22;12727;49.934;8.656;2023-05-14T01:01:45;10.00;99.90
24560;DHT22;12727;49.934;8.656;2023-05-14T01:04:11;10.00;99.90
24560;DHT22;12727;49.934;8.656;2023-05-14T01:09:21;9.90;99.90
24560;DHT22;12727;49.934;8.656;2023-05-14T01:14:20;9.90;99.90
24560;DHT22;12727;49.934;8.656;2023-05-14T01:16:48;10.10;99.90
24560;DHT22;12727;49.934;8.656;2023-05-14T01:19:36;10.20;99.90
24560;DHT22;12727;49.934;8.656;2023-05-14T01:22:03;10.20;99.90
24560;DHT22;12727;49.934;8.656;2023-05-14T01:24:29;10.20;99.90
24560;DHT22;12727;49.934;8.656;2023-05-14T01:27:06;10.20;99.90
24560;DHT22;12727;49.934;8.656;2023-05-14T01:29:37;10.30;99.90
24560;DHT22;12727;49.934;8.656;2023-05-14T01:32:05;10.30;99.90
24560;DHT22;12727;49.934;8.656;2023-05-14T01:34:32;10.30;99.90
24560;DHT22;12727;49.934;8.656;2023-05-14T01:36:59;10.30;99.90
24560;DHT22;12727;49.934;8.656;2023-05-14T01:39:26;10.30;99.90
24560;DHT22;12727;49.934;8.656;2023-05-14T01:41:53;10.30;99.90
24560;DHT22;12727;49.934;8.656;2023-05-14T01:44:19;10.10;99.90
24560;DHT22;12727;49.934;8.656;2023-05-14T01:46:45;9.80;99.90
24560;DHT22;12727;49.934;8.656;2023-05-14T01:49:11;9.60;99.90
24560;DHT22;12727;49.934;8.656;2023-05-14T01:51:36;9.60;99.90
24560;DHT22;12727;49.934;8.656;2023-05-14T01:54:02;9.70;99.90
24560;DHT22;12727;49.934;8.656;2023-05-14T01:56:28;9.90;99.90
24560;DHT22;12727;49.934;8.656;2023-05-14T01:58:53;10.20;99.90
24560;DHT22;12727;49.934;8.656;2023-05-14T02:01:21;10.30;99.90
24560;DHT22;12727;49.934;8.656;2023-05-14T02:03:47;10.30;99.90
24560;DHT22;12727;49.934;8.656;2023-05-14T02:06:12;10.50;99.90
24560;DHT22;12727;49.934;8.656;2023-05-14T02:08:38;10.60;99.90
24560;DHT22;12727;49.934;8.656;2023-05-14T02:11:03;10.70;99.90
24560;DHT22;12727;49.934;8.656;2023-05-14T02:13:29;10.70;99.90
24560;DHT22;12727;49.934;8.656;2023-05-14T02:15:55;10.80;99.90
24560;DHT22;12727;49.934;8.656;2023-05-14T02:18:20;10.80;99.90
24560;DHT22;12727;49.934;8.656;2023-05-14T02:20:46;10.80;99.90
24560;DHT22;12727;49.934;8.656;2023-05-14T02:23:11;10.80;99.90
24560;DHT22;12727;49.934;8.656;2023-05-14T02:25:37;10.80;99.90
24560;DHT22;12727;49.934;8.656;2023-05-14T02:28:02;10.60;99.90
24560;DHT22;12727;49.934;8.656;2023-05-14T02:30:28;10.30;99.90
24560;DHT22;12727;49.934;8.656;2023-05-14T02:32:55;10.10;99.90
24560;DHT22;12727;49.934;8.656;2023-05-14T02:35:21;9.90;99.90
24560;DHT22;12727;49.934;8.656;2023-05-14T02:37:47;9.80;99.90
24560;DHT22;12727;49.934;8.656;2023-05-14T02:40:13;9.60;99.90
24560;DHT22;12727;49.934;8.656;2023-05-14T02:42:38;9.50;99.90
24560;DHT22;12727;49.934;8.656;2023-05-14T02:45:04;9.40;99.90
24560;DHT22;12727;49.934;8.656;2023-05-14T02:47:30;9.30;99.90
24560;DHT22;12727;49.934;8.656;2023-05-14T02:49:56;9.20;99.90
24560;DHT22;12727;49.934;8.656;2023-05-14T02:52:21;9.30;99.90
24560;DHT22;12727;49.934;8.656;2023-05-14T02:54:47;9.20;99.90
24560;DHT22;12727;49.934;8.656;2023-05-14T02:57:13;9.30;99.90
24560;DHT22;12727;49.934;8.656;2023-05-14T02:59:38;9.40;99.90
24560;DHT22;12727;49.934;8.656;2023-05-14T03:02:04;9.60;99.90
24560;DHT22;12727;49.934;8.656;2023-05-14T03:04:29;9.50;99.90
24560;DHT22;12727;49.934;8.656;2023-05-14T03:06:55;9.50;99.90
24560;DHT22;12727;49.934;8.656;2023-05-14T03:09:20;9.70;99.90
24560;DHT22;12727;49.934;8.656;2023-05-14T03:11:46;9.60;99.90
24560;DHT22;12727;49.934;8.656;2023-05-14T03:14:11;9.50;99.90
24560;DHT22;12727;49.934;8.656;2023-05-14T03:16:37;9.40;99.90
24560;DHT22;12727;49.934;8.656;2023-05-14T03:19:04;9.10;99.90
24560;DHT22;12727;49.934;8.656;2023-05-14T03:21:29;9.00;99.90
24560;DHT22;12727;49.934;8.656;2023-05-14T03:23:56;9.10;99.90
24560;DHT22;12727;49.934;8.656;2023-05-14T03:26:21;9.10;99.90
24560;DHT22;12727;49.934;8.656;2023-05-14T03:28:47;8.90;99.90
24560;DHT22;12727;49.934;8.656;2023-05-14T03:31:12;8.90;99.90
24560;DHT22;12727;49.934;8.656;2023-05-14T03:33:38;8.80;99.90
24560;DHT22;12727;49.934;8.656;2023-05-14T03:36:04;8.70;99.90
24560;DHT22;12727;49.934;8.656;2023-05-14T03:38:30;8.70;99.90
24560;DHT22;12727;49.934;8.656;2023-05-14T03:40:56;8.60;99.90
24560;DHT22;12727;49.934;8.656;2023-05-14T03:43:21;8.80;99.90
24560;DHT22;12727;49.934;8.656;2023-05-14T03:45:47;8.90;99.90
24560;DHT22;12727;49.934;8.656;2023-05-14T03:48:19;9.00;99.90
24560;DHT22;12727;49.934;8.656;2023-05-14T03:50:45;8.90;99.90
24560;DHT22;12727;49.934;8.656;2023-05-14T03:53:11;8.80;99.90
24560;DHT22;12727;49.934;8.656;2023-05-14T03:55:36;8.90;99.90
24560;DHT22;12727;49.934;8.656;2023-05-14T03:58:02;8.80;99.90
24560;DHT22;12727;49.934;8.656;2023-05-14T04:00:28;8.70;99.90
24560;DHT22;12727;49.934;8.656;2023-05-14T04:02:53;8.90;99.90
24560;DHT22;12727;49.934;8.656;2023-05-14T04:05:19;9.10;99.90
24560;DHT22;12727;49.934;8.656;2023-05-14T04:07:45;9.00;99.90
24560;DHT22;12727;49.934;8.656;2023-05-14T04:10:11;9.00;99.90
24560;DHT22;12727;49.934;8.656;2023-05-14T04:12:37;8.90;99.90
24560;DHT22;12727;49.934;8.656;2023-05-14T04:15:03;8.80;99.90
24560;DHT22;12727;49.934;8.656;2023-05-14T04:17:29;8.90;99.90
24560;DHT22;12727;49.934;8.656;2023-05-14T04:19:54;9.00;99.90
24560;DHT22;12727;49.934;8.656;2023-05-14T04:22:20;9.20;99.90
24560;DHT22;12727;49.934;8.656;2023-05-14T04:24:45;9.20;99.90
24560;DHT22;12727;49.934;8.656;2023-05-14T04:27:13;9.10;99.90
24560;DHT22;12727;49.934;8.656;2023-05-14T04:29:43;9.00;99.90
24560;DHT22;12727;49.934;8.656;2023-05-14T04:32:09;9.00;99.90
24560;DHT22;12727;49.934;8.656;2023-05-14T04:34:34;9.10;99.90
24560;DHT22;12727;49.934;8.656;2023-05-14T04:37:00;9.10;99.90
24560;DHT22;12727;49.934;8.656;2023-05-14T04:39:28;9.10;99.90
24560;DHT22;12727;49.934;8.656;2023-05-14T04:41:53;9.20;99.90
24560;DHT22;12727;49.934;8.656;2023-05-14T04:44:19;9.20;99.90
24560;DHT22;12727;49.934;8.656;2023-05-14T04:46:44;9.10;99.90
24560;DHT22;12727;49.934;8.656;2023-05-14T04:49:10;9.00;99.90
24560;DHT22;12727;49.934;8.656;2023-05-14T04:51:35;9.00;99.90
24560;DHT22;12727;49.934;8.656;2023-05-14T04:54:01;8.90;99.90
24560;DHT22;12727;49.934;8.656;2023-05-14T04:56:27;8.90;99.90
24560;DHT22;12727;49.934;8.656;2023-05-14T04:58:52;9.00;99.90
24560;DHT22;12727;49.934;8.656;2023-05-14T05:01:18;9.10;99.90
24560;DHT22;12727;49.934;8.656;2023-05-14T05:03:43;9.50;99.90
24560;DHT22;12727;49.934;8.656;2023-05-14T05:06:09;9.80;99.90
24560;DHT22;12727;49.934;8.656;2023-05-14T05:08:35;9.90;99.90
24560;DHT22;12727;49.934;8.656;2023-05-14T05:11:01;10.10;99.90
24560;DHT22;12727;49.934;8.656;2023-05-14T05:13:26;10.20;99.90
24560;DHT22;12727;49.934;8.656;2023-05-14T05:15:52;10.40;99.90
24560;DHT22;12727;49.934;8.656;2023-05-14T05:18:17;10.40;99.90
24560;DHT22;12727;49.934;8.656;2023-05-14T05:20:43;10.30;99.90
24560;DHT22;12727;49.934;8.656;2023-05-14T05:23:09;10.30;99.90
24560;DHT22;12727;49.934;8.656;2023-05-14T05:25:34;10.20;99.90
24560;DHT22;12727;49.934;8.656;2023-05-14T05:28:00;10.20;99.90
24560;DHT22;12727;49.934;8.656;2023-05-14T05:30:26;10.30;99.90
24560;DHT22;12727;49.934;8.656;2023-05-14T05:32:51;10.30;99.90
24560;DHT22;12727;49.934;8.656;2023-05-14T05:35:17;10.40;99.90
24560;DHT22;12727;49.934;8.656;2023-05-14T05:37:42;10.50;99.90
24560;DHT22;12727;49.934;8.656;2023-05-14T05:40:09;10.70;99.90
24560;DHT22;12727;49.934;8.656;2023-05-14T05:42:35;10.70;99.90
24560;DHT22;12727;49.934;8.656;2023-05-14T05:45:01;10.80;99.90
24560;DHT22;12727;49.934;8.656;2023-05-14T05:47:26;11.00;99.90
24560;DHT22;12727;49.934;8.656;2023-05-14T05:49:52;11.00;99.90
24560;DHT22;12727;49.934;8.656;2023-05-14T05:52:18;11.00;99.90
24560;DHT22;12727;49.934;8.656;2023-05-14T05:54:43;11.20;99.90
24560;DHT22;12727;49.934;8.656;2023-05-14T05:57:09;11.30;99.90
24560;DHT22;12727;49.934;8.656;2023-05-14T05:59:35;11.40;99.90
24560;DHT22;12727;49.934;8.656;2023-05-14T06:02:01;11.60;99.90
24560;DHT22;12727;49.934;8.656;2023-05-14T06:04:26;11.90;99.90
24560;DHT22;12727;49.934;8.656;2023-05-14T06:06:52;12.40;99.90
24560;DHT22;12727;49.934;8.656;2023-05-14T06:09:18;12.90;99.90
24560;DHT22;12727;49.934;8.656;2023-05-14T06:11:43;13.30;99.90
24560;DHT22;12727;49.934;8.656;2023-05-14T06:14:09;13.70;99.90
24560;DHT22;12727;49.934;8.656;2023-05-14T06:16:34;14.00;99.90
24560;DHT22;12727;49.934;8.656;2023-05-14T06:19:00;14.20;99.90
24560;DHT22;12727;49.934;8.656;2023-05-14T06:21:26;14.40;99.90
24560;DHT22;12727;49.934;8.656;2023-05-14T06:23:52;14.60;99.90
24560;DHT22;12727;49.934;8.656;2023-05-14T06:26:17;14.80;99.90
24560;DHT22;12727;49.934;8.656;2023-05-14T06:28:43;15.00;99.90
24560;DHT22;12727;49.934;8.656;2023-05-14T06:31:09;15.20;99.90
24560;DHT22;12727;49.934;8.656;2023-05-14T06:33:34;15.20;99.90
24560;DHT22;12727;49.934;8.656;2023-05-14T06:36:03;15.40;99.90
24560;DHT22;12727;49.934;8.656;2023-05-14T06:38:29;15.30;99.90
24560;DHT22;12727;49.934;8.656;2023-05-14T06:40:55;15.40;99.90
24560;DHT22;12727;49.934;8.656;2023-05-14T06:43:20;15.90;99.90
24560;DHT22;12727;49.934;8.656;2023-05-14T06:45:52;16.20;99.90
24560;DHT22;12727;49.934;8.656;2023-05-14T06:48:18;16.50;99.90
24560;DHT22;12727;49.934;8.656;2023-05-14T06:50:47;16.50;99.90
24560;DHT22;12727;49.934;8.656;2023-05-14T06:53:13;16.30;99.90
24560;DHT22;12727;49.934;8.656;2023-05-14T06:55:39;15.90;99.90
24560;DHT22;12727;49.934;8.656;2023-05-14T06:58:06;16.10;99.90
24560;DHT22;12727;49.934;8.656;2023-05-14T07:00:32;16.10;99.90
24560;DHT22;12727;49.934;8.656;2023-05-14T07:02:57;15.90;99.90
24560;DHT22;12727;49.934;8.656;2023-05-14T07:05:23;15.80;99.90
24560;DHT22;12727;49.934;8.656;2023-05-14T07:07:49;16.10;99.90
24560;DHT22;12727;49.934;8.656;2023-05-14T07:10:15;16.30;99.90
24560;DHT22;12727;49.934;8.656;2023-05-14T07:12:40;16.40;99.90
24560;DHT22;12727;49.934;8.656;2023-05-14T07:15:07;16.20;99.90
24560;DHT22;12727;49.934;8.656;2023-05-14T07:17:32;16.30;99.90
24560;DHT22;12727;49.934;8.656;2023-05-14T07:19:58;16.30;99.90
24560;DHT22;12727;49.934;8.656;2023-05-14T07:22:23;16.30;99.90
24560;DHT22;12727;49.934;8.656;2023-05-14T07:24:49;16.40;99.90
24560;DHT22;12727;49.934;8.656;2023-05-14T07:27:15;16.70;99.90
24560;DHT22;12727;49.934;8.656;2023-05-14T07:29:41;17.10;99.90
24560;DHT22;12727;49.934;8.656;2023-05-14T07:32:07;17.50;99.90
24560;DHT22;12727;49.934;8.656;2023-05-14T07:34:33;17.70;99.90
24560;DHT22;12727;49.934;8.656;2023-05-14T07:36:58;17.70;99.30
24560;DHT22;12727;49.934;8.656;2023-05-14T07:39:24;18.10;98.50
24560;DHT22;12727;49.934;8.656;2023-05-14T07:41:50;18.40;97.90
24560;DHT22;12727;49.934;8.656;2023-05-14T07:44:15;18.90;97.90
24560;DHT22;12727;49.934;8.656;2023-05-14T07:46:41;18.90;95.60
24560;DHT22;12727;49.934;8.656;2023-05-14T07:49:07;18.80;95.70
24560;DHT22;12727;49.934;8.656;2023-05-14T07:51:32;18.60;95.50
24560;DHT22;12727;49.934;8.656;2023-05-14T07:53:58;19.00;95.70
24560;DHT22;12727;49.934;8.656;2023-05-14T07:56:23;18.80;94.40
24560;DHT22;12727;49.934;8.656;2023-05-14T07:58:50;17.90;94.30
24560;DHT22;12727;49.934;8.656;2023-05-14T08:01:16;17.90;95.40
24560;DHT22;12727;49.934;8.656;2023-05-14T08:03:41;18.10;94.60
24560;DHT22;12727;49.934;8.656;2023-05-14T08:06:07;18.00;94.10
24560;DHT22;12727;49.934;8.656;2023-05-14T08:08:33;18.20;93.70
24560;DHT22;12727;49.934;8.656;2023-05-14T08:10:58;18.20;93.20
24560;DHT22;12727;49.934;8.656;2023-05-14T08:13:24;18.70;92.60
24560;DHT22;12727;49.934;8.656;2023-05-14T08:15:50;18.80;92.60
24560;DHT22;12727;49.934;8.656;2023-05-14T08:18:15;19.20;91.90
24560;DHT22;12727;49.934;8.656;2023-05-14T08:20:41;19.70;92.40
24560;DHT22;12727;49.934;8.656;2023-05-14T08:23:07;19.90;90.80
24560;DHT22;12727;49.934;8.656;2023-05-14T08:25:33;20.10;91.30
24560;DHT22;12727;49.934;8.656;2023-05-14T08:27:59;20.50;90.30
24560;DHT22;12727;49.934;8.656;2023-05-14T08:30:25;21.00;90.00
24560;DHT22;12727;49.934;8.656;2023-05-14T08:32:51;21.10;87.70
24560;DHT22;12727;49.934;8.656;2023-05-14T08:35:17;21.30;86.50
24560;DHT22;12727;49.934;8.656;2023-05-14T08:37:43;21.70;85.50
24560;DHT22;12727;49.934;8.656;2023-05-14T08:40:09;21.60;83.20
24560;DHT22;12727;49.934;8.656;2023-05-14T08:42:37;20.90;83.90
24560;DHT22;12727;49.934;8.656;2023-05-14T08:45:08;20.30;85.20
24560;DHT22;12727;49.934;8.656;2023-05-14T08:47:36;19.70;86.50
24560;DHT22;12727;49.934;8.656;2023-05-14T08:50:04;20.40;86.30
24560;DHT22;12727;49.934;8.656;2023-05-14T08:52:31;20.30;83.90
24560;DHT22;12727;49.934;8.656;2023-05-14T08:55:02;19.40;86.60
24560;DHT22;12727;49.934;8.656;2023-05-14T08:57:30;18.70;88.80
24560;DHT22;12727;49.934;8.656;2023-05-14T08:59:56;18.20;89.30
24560;DHT22;12727;49.934;8.656;2023-05-14T09:02:28;17.90;90.10
24560;DHT22;12727;49.934;8.656;2023-05-14T09:04:58;17.80;90.50
24560;DHT22;12727;49.934;8.656;2023-05-14T09:07:25;18.50;90.20
24560;DHT22;12727;49.934;8.656;2023-05-14T09:09:51;18.50;88.80
24560;DHT22;12727;49.934;8.656;2023-05-14T09:12:17;18.40;88.20
24560;DHT22;12727;49.934;8.656;2023-05-14T09:14:44;18.70;88.30
24560;DHT22;12727;49.934;8.656;2023-05-14T09:17:09;18.80;89.70
24560;DHT22;12727;49.934;8.656;2023-05-14T09:19:39;19.00;89.90
24560;DHT22;12727;49.934;8.656;2023-05-14T09:22:07;19.60;90.10
24560;DHT22;12727;49.934;8.656;2023-05-14T09:24:33;20.20;88.20
24560;DHT22;12727;49.934;8.656;2023-05-14T09:27:00;20.10;87.90
24560;DHT22;12727;49.934;8.656;2023-05-14T09:29:27;20.80;87.70
24560;DHT22;12727;49.934;8.656;2023-05-14T09:31:54;21.80;85.90
24560;DHT22;12727;49.934;8.656;2023-05-14T09:34:30;22.50;83.70
24560;DHT22;12727;49.934;8.656;2023-05-14T09:37:07;23.00;79.90
24560;DHT22;12727;49.934;8.656;2023-05-14T09:39:34;22.20;79.40
24560;DHT22;12727;49.934;8.656;2023-05-14T09:42:00;21.20;81.20
24560;DHT22;12727;49.934;8.656;2023-05-14T09:44:27;20.50;81.80
24560;DHT22;12727;49.934;8.656;2023-05-14T09:46:52;20.10;81.50
24560;DHT22;12727;49.934;8.656;2023-05-14T09:49:19;19.90;82.60
24560;DHT22;12727;49.934;8.656;2023-05-14T09:51:45;19.80;82.90
24560;DHT22;12727;49.934;8.656;2023-05-14T09:54:11;19.40;81.90
24560;DHT22;12727;49.934;8.656;2023-05-14T09:56:36;19.20;82.60
24560;DHT22;12727;49.934;8.656;2023-05-14T09:59:03;18.90;83.80
24560;DHT22;12727;49.934;8.656;2023-05-14T10:01:30;18.70;84.00
24560;DHT22;12727;49.934;8.656;2023-05-14T10:03:57;18.40;84.50
24560;DHT22;12727;49.934;8.656;2023-05-14T10:06:24;18.10;85.00
24560;DHT22;12727;49.934;8.656;2023-05-14T10:08:54;17.80;85.90
24560;DHT22;12727;49.934;8.656;2023-05-14T10:11:24;17.80;86.90
24560;DHT22;12727;49.934;8.656;2023-05-14T10:14:13;18.00;87.60
24560;DHT22;12727;49.934;8.656;2023-05-14T10:16:46;18.00;84.60
24560;DHT22;12727;49.934;8.656;2023-05-14T10:19:15;18.10;85.60
24560;DHT22;12727;49.934;8.656;2023-05-14T10:21:44;18.10;85.40
24560;DHT22;12727;49.934;8.656;2023-05-14T10:24:10;18.20;86.00
24560;DHT22;12727;49.934;8.656;2023-05-14T10:26:38;18.10;86.00
24560;DHT22;12727;49.934;8.656;2023-05-14T10:29:05;17.60;85.00
24560;DHT22;12727;49.934;8.656;2023-05-14T10:34:34;17.40;86.40
24560;DHT22;12727;49.934;8.656;2023-05-14T10:37:25;17.30;86.90
24560;DHT22;12727;49.934;8.656;2023-05-14T10:40:00;17.10;87.80
24560;DHT22;12727;49.934;8.656;2023-05-14T10:44:59;17.20;87.90
24560;DHT22;12727;49.934;8.656;2023-05-14T10:47:30;17.20;87.50
24560;DHT22;12727;49.934;8.656;2023-05-14T10:49:58;17.30;87.60
24560;DHT22;12727;49.934;8.656;2023-05-14T10:52:24;17.40;88.20
24560;DHT22;12727;49.934;8.656;2023-05-14T10:57:18;17.30;87.70
24560;DHT22;12727;49.934;8.656;2023-05-14T10:59:46;17.30;88.20
24560;DHT22;12727;49.934;8.656;2023-05-14T11:02:23;17.30;87.90
24560;DHT22;12727;49.934;8.656;2023-05-14T11:05:04;17.40;88.40
24560;DHT22;12727;49.934;8.656;2023-05-14T11:10:26;17.80;87.00
24560;DHT22;12727;49.934;8.656;2023-05-14T11:12:56;18.00;86.80
24560;DHT22;12727;49.934;8.656;2023-05-14T11:15:24;18.30;86.30
24560;DHT22;12727;49.934;8.656;2023-05-14T11:17:51;18.40;86.10
24560;DHT22;12727;49.934;8.656;2023-05-14T11:20:18;18.40;85.90
24560;DHT22;12727;49.934;8.656;2023-05-14T11:22:45;18.50;85.60
24560;DHT22;12727;49.934;8.656;2023-05-14T11:25:12;18.50;85.90
24560;DHT22;12727;49.934;8.656;2023-05-14T11:27:43;18.50;85.50
24560;DHT22;12727;49.934;8.656;2023-05-14T11:30:17;18.40;85.10
24560;DHT22;12727;49.934;8.656;2023-05-14T11:32:44;18.40;85.70
24560;DHT22;12727;49.934;8.656;2023-05-14T11:35:10;18.40;84.90
24560;DHT22;12727;49.934;8.656;2023-05-14T11:37:36;18.50;83.50
24560;DHT22;12727;49.934;8.656;2023-05-14T11:40:07;18.40;83.30
24560;DHT22;12727;49.934;8.656;2023-05-14T11:42:34;18.50;82.70
24560;DHT22;12727;49.934;8.656;2023-05-14T11:45:01;18.50;82.20
24560;DHT22;12727;49.934;8.656;2023-05-14T11:47:28;18.70;82.10
24560;DHT22;12727;49.934;8.656;2023-05-14T11:49:54;18.90;82.00
24560;DHT22;12727;49.934;8.656;2023-05-14T11:52:19;19.10;82.60
24560;DHT22;12727;49.934;8.656;2023-05-14T11:54:46;19.20;82.60
24560;DHT22;12727;49.934;8.656;2023-05-14T11:57:19;19.00;81.60
24560;DHT22;12727;49.934;8.656;2023-05-14T11:59:46;18.80;81.40
24560;DHT22;12727;49.934;8.656;2023-05-14T12:02:15;18.60;82.50
24560;DHT22;12727;49.934;8.656;2023-05-14T12:04:42;18.80;81.40
24560;DHT22;12727;49.934;8.656;2023-05-14T12:07:10;18.90;80.50
24560;DHT22;12727;49.934;8.656;2023-05-14T12:09:37;19.10;79.70
24560;DHT22;12727;49.934;8.656;2023-05-14T12:12:08;19.10;80.40
24560;DHT22;12727;49.934;8.656;2023-05-14T12:14:37;19.20;80.10
24560;DHT22;12727;49.934;8.656;2023-05-14T12:17:03;18.80;80.70
24560;DHT22;12727;49.934;8.656;2023-05-14T12:19:39;18.70;81.50
24560;DHT22;12727;49.934;8.656;2023-05-14T12:22:07;18.90;82.60
24560;DHT22;12727;49.934;8.656;2023-05-14T12:24:33;18.90;82.50
24560;DHT22;12727;49.934;8.656;2023-05-14T12:27:00;18.90;80.80
24560;DHT22;12727;49.934;8.656;2023-05-14T12:29:26;18.70;80.90
24560;DHT22;12727;49.934;8.656;2023-05-14T12:31:52;18.70;80.70
24560;DHT22;12727;49.934;8.656;2023-05-14T12:34:17;18.70;81.10
24560;DHT22;12727;49.934;8.656;2023-05-14T12:36:43;18.80;80.70
24560;DHT22;12727;49.934;8.656;2023-05-14T12:39:10;18.90;81.00
24560;DHT22;12727;49.934;8.656;2023-05-14T12:41:36;19.10;80.90
24560;DHT22;12727;49.934;8.656;2023-05-14T12:44:03;19.00;81.20
24560;DHT22;12727;49.934;8.656;2023-05-14T12:46:29;18.80;79.80
24560;DHT22;12727;49.934;8.656;2023-05-14T12:48:55;18.60;80.40
24560;DHT22;12727;49.934;8.656;2023-05-14T12:51:21;18.60;80.90
24560;DHT22;12727;49.934;8.656;2023-05-14T12:53:47;18.70;81.00
24560;DHT22;12727;49.934;8.656;2023-05-14T12:56:13;18.70;81.20
24560;DHT22;12727;49.934;8.656;2023-05-14T12:58:39;18.70;80.30
24560;DHT22;12727;49.934;8.656;2023-05-14T13:01:05;18.80;79.70
24560;DHT22;12727;49.934;8.656;2023-05-14T13:03:31;18.80;79.10
24560;DHT22;12727;49.934;8.656;2023-05-14T13:05:57;18.80;79.20
24560;DHT22;12727;49.934;8.656;2023-05-14T13:08:24;19.00;79.40
24560;DHT22;12727;49.934;8.656;2023-05-14T13:10:51;19.00;77.00
24560;DHT22;12727;49.934;8.656;2023-05-14T13:13:17;18.90;78.30
24560;DHT22;12727;49.934;8.656;2023-05-14T13:15:42;19.10;78.00
24560;DHT22;12727;49.934;8.656;2023-05-14T13:18:11;19.10;78.40
24560;DHT22;12727;49.934;8.656;2023-05-14T13:20:37;19.10;78.30
24560;DHT22;12727;49.934;8.656;2023-05-14T13:23:03;19.20;78.50
24560;DHT22;12727;49.934;8.656;2023-05-14T13:25:28;19.30;78.30
24560;DHT22;12727;49.934;8.656;2023-05-14T13:27:54;19.50;79.00
24560;DHT22;12727;49.934;8.656;2023-05-14T13:30:20;19.70;77.90
24560;DHT22;12727;49.934;8.656;2023-05-14T13:32:46;19.70;77.40
24560;DHT22;12727;49.934;8.656;2023-05-14T13:35:11;19.80;78.20
24560;DHT22;12727;49.934;8.656;2023-05-14T13:37:37;19.80;78.20
24560;DHT22;12727;49.934;8.656;2023-05-14T13:40:04;19.90;77.60
24560;DHT22;12727;49.934;8.656;2023-05-14T13:42:34;19.80;77.20
24560;DHT22;12727;49.934;8.656;2023-05-14T13:44:59;19.80;76.70
24560;DHT22;12727;49.934;8.656;2023-05-14T13:47:25;19.70;75.40
24560;DHT22;12727;49.934;8.656;2023-05-14T13:49:52;19.70;76.40
24560;DHT22;12727;49.934;8.656;2023-05-14T13:52:18;19.50;76.20
24560;DHT22;12727;49.934;8.656;2023-05-14T13:54:43;19.30;77.10
24560;DHT22;12727;49.934;8.656;2023-05-14T13:57:09;19.20;77.60
24560;DHT22;12727;49.934;8.656;2023-05-14T13:59:35;19.20;78.20
24560;DHT22;12727;49.934;8.656;2023-05-14T14:02:01;19.20;78.20
24560;DHT22;12727;49.934;8.656;2023-05-14T14:04:26;19.00;78.50
24560;DHT22;12727;49.934;8.656;2023-05-14T14:06:53;19.00;79.40
24560;DHT22;12727;49.934;8.656;2023-05-14T14:09:19;19.00;79.70
24560;DHT22;12727;49.934;8.656;2023-05-14T14:11:45;19.00;79.00
24560;DHT22;12727;49.934;8.656;2023-05-14T14:14:11;19.00;79.50
24560;DHT22;12727;49.934;8.656;2023-05-14T14:16:36;19.00;79.10
24560;DHT22;12727;49.934;8.656;2023-05-14T14:19:02;19.10;76.90
24560;DHT22;12727;49.934;8.656;2023-05-14T14:21:28;19.10;75.00
24560;DHT22;12727;49.934;8.656;2023-05-14T14:23:53;19.00;74.50
24560;DHT22;12727;49.934;8.656;2023-05-14T14:26:19;19.00;73.90
24560;DHT22;12727;49.934;8.656;2023-05-14T14:28:45;19.00;74.60
24560;DHT22;12727;49.934;8.656;2023-05-14T14:31:12;19.00;74.80
24560;DHT22;12727;49.934;8.656;2023-05-14T14:33:38;19.10;76.00
24560;DHT22;12727;49.934;8.656;2023-05-14T14:36:04;19.20;76.60
24560;DHT22;12727;49.934;8.656;2023-05-14T14:38:29;19.40;76.50
24560;DHT22;12727;49.934;8.656;2023-05-14T14:40:56;19.20;74.60
24560;DHT22;12727;49.934;8.656;2023-05-14T14:43:22;19.20;75.00
24560;DHT22;12727;49.934;8.656;2023-05-14T14:45:48;19.20;75.60
24560;DHT22;12727;49.934;8.656;2023-05-14T14:48:26;19.30;75.80
24560;DHT22;12727;49.934;8.656;2023-05-14T14:50:53;19.50;75.90
24560;DHT22;12727;49.934;8.656;2023-05-14T14:53:23;19.60;75.50
24560;DHT22;12727;49.934;8.656;2023-05-14T14:55:49;19.50;75.90
24560;DHT22;12727;49.934;8.656;2023-05-14T14:58:15;19.40;75.40
24560;DHT22;12727;49.934;8.656;2023-05-14T15:00:40;19.40;76.10
24560;DHT22;12727;49.934;8.656;2023-05-14T15:03:06;19.50;75.90
24560;DHT22;12727;49.934;8.656;2023-05-14T15:05:34;19.50;75.90
24560;DHT22;12727;49.934;8.656;2023-05-14T15:07:59;19.50;74.10
24560;DHT22;12727;49.934;8.656;2023-05-14T15:10:26;19.40;72.90
24560;DHT22;12727;49.934;8.656;2023-05-14T15:12:57;19.30;73.60
24560;DHT22;12727;49.934;8.656;2023-05-14T15:15:23;19.30;74.50
24560;DHT22;12727;49.934;8.656;2023-05-14T15:17:49;19.30;74.50
24560;DHT22;12727;49.934;8.656;2023-05-14T15:20:15;19.30;72.80
24560;DHT22;12727;49.934;8.656;2023-05-14T15:22:41;19.30;73.20
24560;DHT22;12727;49.934;8.656;2023-05-14T15:25:07;19.30;73.20
24560;DHT22;12727;49.934;8.656;2023-05-14T15:27:33;19.30;72.30
24560;DHT22;12727;49.934;8.656;2023-05-14T15:29:58;19.30;72.40
24560;DHT22;12727;49.934;8.656;2023-05-14T15:32:24;19.30;72.20
24560;DHT22;12727;49.934;8.656;2023-05-14T15:34:51;19.30;71.90
24560;DHT22;12727;49.934;8.656;2023-05-14T15:37:17;19.50;73.00
24560;DHT22;12727;49.934;8.656;2023-05-14T15:39:42;19.50;73.40
24560;DHT22;12727;49.934;8.656;2023-05-14T15:42:09;19.50;73.30
24560;DHT22;12727;49.934;8.656;2023-05-14T15:44:35;19.60;73.00
24560;DHT22;12727;49.934;8.656;2023-05-14T15:47:01;19.60;71.90